sensor_id;sensor_type;location;lat;lon;timestamp;P1;durP1;ratioP1;P2;durP2;ratioP2
4186;SDS011;2107;52.306;10.484;2023-02-01T00:00:11;0.90;;;0.90;;
4186;SDS011;2107;52.306;10.484;2023-02-01T00:02:38;0.80;;;0.80;;
4186;SDS011;2107;52.306;10.484;2023-02-01T00:05:06;1.30;;;1.30;;
4186;SDS011;2107;52.306;10.484;2023-02-01T00:07:34;1.20;;;1.20;;
4186;SDS011;2107;52.306;10.484;2023-02-01T00:10:00;1.20;;;1.20;;
4186;SDS011;2107;52.306;10.484;2023-02-01T00:12:28;1.20;;;1.20;;
4186;SDS011;2107;52.306;10.484;2023-02-01T00:14:57;1.40;;;1.40;;
4186;SDS011;2107;52.306;10.484;2023-02-01T00:17:24;1.30;;;1.30;;
4186;SDS011;2107;52.306;10.484;2023-02-01T00:19:51;1.13;;;1.13;;
4186;SDS011;2107;52.306;10.484;2023-02-01T00:22:17;0.90;;;0.90;;
4186;SDS011;2107;52.306;10.484;2023-02-01T00:24:44;0.70;;;0.70;;
4186;SDS011;2107;52.306;10.484;2023-02-01T00:27:11;0.80;;;0.80;;
4186;SDS011;2107;52.306;10.484;2023-02-01T00:29:42;0.90;;;0.90;;
4186;SDS011;2107;52.306;10.484;2023-02-01T00:32:11;0.90;;;0.90;;
4186;SDS011;2107;52.306;10.484;2023-02-01T00:34:38;1.00;;;1.00;;
4186;SDS011;2107;52.306;10.484;2023-02-01T00:37:05;1.10;;;1.10;;
4186;SDS011;2107;52.306;10.484;2023-02-01T00:39:32;1.10;;;1.10;;
4186;SDS011;2107;52.306;10.484;2023-02-01T00:41:59;1.10;;;1.10;;
4186;SDS011;2107;52.306;10.484;2023-02-01T00:44:26;0.90;;;0.90;;
4186;SDS011;2107;52.306;10.484;2023-02-01T00:46:58;0.87;;;0.87;;
4186;SDS011;2107;52.306;10.484;2023-02-01T00:49:26;0.80;;;0.80;;
4186;SDS011;2107;52.306;10.484;2023-02-01T00:51:53;1.20;;;1.20;;
4186;SDS011;2107;52.306;10.484;2023-02-01T00:54:20;1.20;;;1.20;;
4186;SDS011;2107;52.306;10.484;2023-02-01T00:56:47;1.40;;;1.40;;
4186;SDS011;2107;52.306;10.484;2023-02-01T00:59:14;1.23;;;1.23;;
4186;SDS011;2107;52.306;10.484;2023-02-01T01:01:41;1.20;;;1.20;;
4186;SDS011;2107;52.306;10.484;2023-02-01T01:04:08;1.10;;;1.10;;
4186;SDS011;2107;52.306;10.484;2023-02-01T01:06:36;1.20;;;1.20;;
4186;SDS011;2107;52.306;10.484;2023-02-01T01:09:05;1.00;;;1.00;;
4186;SDS011;2107;52.306;10.484;2023-02-01T01:11:33;1.10;;;1.10;;
4186;SDS011;2107;52.306;10.484;2023-02-01T01:14:02;1.10;;;1.10;;
4186;SDS011;2107;52.306;10.484;2023-02-01T01:16:31;1.10;;;1.10;;
4186;SDS011;2107;52.306;10.484;2023-02-01T01:18:58;1.30;;;1.30;;
4186;SDS011;2107;52.306;10.484;2023-02-01T01:21:25;1.70;;;1.70;;
4186;SDS011;2107;52.306;10.484;2023-02-01T01:23:54;1.30;;;1.30;;
4186;SDS011;2107;52.306;10.484;2023-02-01T01:26:21;1.40;;;1.40;;
4186;SDS011;2107;52.306;10.484;2023-02-01T01:28:50;1.10;;;1.10;;
4186;SDS011;2107;52.306;10.484;2023-02-01T01:31:17;1.10;;;1.10;;
4186;SDS011;2107;52.306;10.484;2023-02-01T01:33:47;1.00;;;1.00;;
4186;SDS011;2107;52.306;10.484;2023-02-01T01:36:15;1.30;;;1.30;;
4186;SDS011;2107;52.306;10.484;2023-02-01T01:38:42;1.40;;;1.40;;
4186;SDS011;2107;52.306;10.484;2023-02-01T01:41:12;1.40;;;1.40;;
4186;SDS011;2107;52.306;10.484;2023-02-01T01:43:47;0.93;;;0.93;;
4186;SDS011;2107;52.306;10.484;2023-02-01T01:46:17;0.90;;;0.90;;
4186;SDS011;2107;52.306;10.484;2023-02-01T01:48:46;1.40;;;1.40;;
4186;SDS011;2107;52.306;10.484;2023-02-01T01:51:15;1.30;;;1.30;;
4186;SDS011;2107;52.306;10.484;2023-02-01T01:53:47;1.50;;;1.50;;
4186;SDS011;2107;52.306;10.484;2023-02-01T01:56:20;1.10;;;1.10;;
4186;SDS011;2107;52.306;10.484;2023-02-01T01:58:48;1.20;;;1.20;;
4186;SDS011;2107;52.306;10.484;2023-02-01T02:01:15;1.10;;;1.10;;
4186;SDS011;2107;52.306;10.484;2023-02-01T02:03:43;1.17;;;1.17;;
4186;SDS011;2107;52.306;10.484;2023-02-01T02:06:15;1.20;;;1.20;;
4186;SDS011;2107;52.306;10.484;2023-02-01T02:08:49;1.20;;;1.20;;
4186;SDS011;2107;52.306;10.484;2023-02-01T02:11:16;1.30;;;1.30;;
4186;SDS011;2107;52.306;10.484;2023-02-01T02:13:46;1.40;;;1.40;;
4186;SDS011;2107;52.306;10.484;2023-02-01T02:16:21;0.70;;;0.70;;
4186;SDS011;2107;52.306;10.484;2023-02-01T02:18:57;0.90;;;0.90;;
4186;SDS011;2107;52.306;10.484;2023-02-01T02:21:41;1.00;;;1.00;;
4186;SDS011;2107;52.306;10.484;2023-02-01T02:27:23;1.00;;;1.00;;
4186;SDS011;2107;52.306;10.484;2023-02-01T02:30:08;1.10;;;1.10;;
4186;SDS011;2107;52.306;10.484;2023-02-01T02:33:23;1.40;;;1.40;;
4186;SDS011;2107;52.306;10.484;2023-02-01T02:36:17;1.40;;;1.40;;
4186;SDS011;2107;52.306;10.484;2023-02-01T02:38:50;1.30;;;1.30;;
4186;SDS011;2107;52.306;10.484;2023-02-01T02:41:23;1.40;;;1.40;;
4186;SDS011;2107;52.306;10.484;2023-02-01T02:44:12;1.10;;;1.10;;
4186;SDS011;2107;52.306;10.484;2023-02-01T02:47:10;1.40;;;1.40;;
4186;SDS011;2107;52.306;10.484;2023-02-01T02:49:52;1.50;;;1.50;;
4186;SDS011;2107;52.306;10.484;2023-02-01T02:52:42;1.50;;;1.50;;
4186;SDS011;2107;52.306;10.484;2023-02-01T02:55:31;0.90;;;0.90;;
4186;SDS011;2107;52.306;10.484;2023-02-01T02:58:01;1.00;;;1.00;;
4186;SDS011;2107;52.306;10.484;2023-02-01T03:00:48;1.20;;;1.20;;
4186;SDS011;2107;52.306;10.484;2023-02-01T03:03:35;1.40;;;1.40;;
4186;SDS011;2107;52.306;10.484;2023-02-01T03:06:22;1.60;;;1.60;;
4186;SDS011;2107;52.306;10.484;2023-02-01T03:08:50;1.40;;;1.40;;
4186;SDS011;2107;52.306;10.484;2023-02-01T03:11:19;1.70;;;1.70;;
4186;SDS011;2107;52.306;10.484;2023-02-01T03:13:48;1.40;;;1.40;;
4186;SDS011;2107;52.306;10.484;2023-02-01T03:16:18;1.27;;;1.27;;
4186;SDS011;2107;52.306;10.484;2023-02-01T03:18:52;1.00;;;1.00;;
4186;SDS011;2107;52.306;10.484;2023-02-01T03:21:25;1.10;;;1.10;;
4186;SDS011;2107;52.306;10.484;2023-02-01T03:23:56;0.90;;;0.90;;
4186;SDS011;2107;52.306;10.484;2023-02-01T03:26:26;1.10;;;1.10;;
4186;SDS011;2107;52.306;10.484;2023-02-01T03:28:57;0.90;;;0.90;;
4186;SDS011;2107;52.306;10.484;2023-02-01T03:31:31;1.00;;;1.00;;
4186;SDS011;2107;52.306;10.484;2023-02-01T03:33:58;0.90;;;0.90;;
4186;SDS011;2107;52.306;10.484;2023-02-01T03:36:28;0.93;;;0.93;;
4186;SDS011;2107;52.306;10.484;2023-02-01T03:39:02;0.90;;;0.90;;
4186;SDS011;2107;52.306;10.484;2023-02-01T03:41:34;1.30;;;1.30;;
4186;SDS011;2107;52.306;10.484;2023-02-01T03:44:04;1.00;;;1.00;;
4186;SDS011;2107;52.306;10.484;2023-02-01T03:46:37;1.50;;;1.50;;
4186;SDS011;2107;52.306;10.484;2023-02-01T03:49:08;1.80;;;1.80;;
4186;SDS011;2107;52.306;10.484;2023-02-01T03:51:42;1.50;;;1.50;;
4186;SDS011;2107;52.306;10.484;2023-02-01T03:54:10;1.60;;;1.60;;
4186;SDS011;2107;52.306;10.484;2023-02-01T03:56:40;1.50;;;1.50;;
4186;SDS011;2107;52.306;10.484;2023-02-01T03:59:10;1.50;;;1.50;;
4186;SDS011;2107;52.306;10.484;2023-02-01T04:01:38;1.70;;;1.70;;
4186;SDS011;2107;52.306;10.484;2023-02-01T04:04:05;1.70;;;1.70;;
4186;SDS011;2107;52.306;10.484;2023-02-01T04:06:34;2.00;;;2.00;;
4186;SDS011;2107;52.306;10.484;2023-02-01T04:09:02;2.40;;;2.40;;
4186;SDS011;2107;52.306;10.484;2023-02-01T04:11:29;3.20;;;3.20;;
4186;SDS011;2107;52.306;10.484;2023-02-01T04:13:56;2.50;;;2.50;;
4186;SDS011;2107;52.306;10.484;2023-02-01T04:16:23;1.90;;;1.90;;
4186;SDS011;2107;52.306;10.484;2023-02-01T04:18:50;2.20;;;2.20;;
4186;SDS011;2107;52.306;10.484;2023-02-01T04:21:16;1.90;;;1.90;;
4186;SDS011;2107;52.306;10.484;2023-02-01T04:23:43;2.90;;;2.90;;
4186;SDS011;2107;52.306;10.484;2023-02-01T04:26:11;2.13;;;2.13;;
4186;SDS011;2107;52.306;10.484;2023-02-01T04:28:38;2.50;;;2.50;;
4186;SDS011;2107;52.306;10.484;2023-02-01T04:31:05;2.60;;;2.60;;
4186;SDS011;2107;52.306;10.484;2023-02-01T04:33:32;2.40;;;2.40;;
4186;SDS011;2107;52.306;10.484;2023-02-01T04:35:59;1.80;;;1.80;;
4186;SDS011;2107;52.306;10.484;2023-02-01T04:38:26;1.97;;;1.97;;
4186;SDS011;2107;52.306;10.484;2023-02-01T04:40:54;1.80;;;1.80;;
4186;SDS011;2107;52.306;10.484;2023-02-01T04:43:22;1.60;;;1.60;;
4186;SDS011;2107;52.306;10.484;2023-02-01T04:45:49;1.50;;;1.50;;
4186;SDS011;2107;52.306;10.484;2023-02-01T04:48:17;2.20;;;2.20;;
4186;SDS011;2107;52.306;10.484;2023-02-01T04:50:45;2.20;;;2.20;;
4186;SDS011;2107;52.306;10.484;2023-02-01T04:53:13;2.40;;;2.40;;
4186;SDS011;2107;52.306;10.484;2023-02-01T04:55:40;2.00;;;2.00;;
4186;SDS011;2107;52.306;10.484;2023-02-01T04:58:07;1.80;;;1.80;;
4186;SDS011;2107;52.306;10.484;2023-02-01T05:00:35;2.00;;;2.00;;
4186;SDS011;2107;52.306;10.484;2023-02-01T05:03:03;1.50;;;1.50;;
4186;SDS011;2107;52.306;10.484;2023-02-01T05:05:30;2.90;;;2.90;;
4186;SDS011;2107;52.306;10.484;2023-02-01T05:07:57;3.00;;;3.00;;
4186;SDS011;2107;52.306;10.484;2023-02-01T05:10:24;2.90;;;2.90;;
4186;SDS011;2107;52.306;10.484;2023-02-01T05:12:51;2.30;;;2.30;;
4186;SDS011;2107;52.306;10.484;2023-02-01T05:15:37;2.00;;;2.00;;
4186;SDS011;2107;52.306;10.484;2023-02-01T05:18:03;2.60;;;2.60;;
4186;SDS011;2107;52.306;10.484;2023-02-01T05:20:30;2.57;;;2.57;;
4186;SDS011;2107;52.306;10.484;2023-02-01T05:22:57;1.90;;;1.90;;
4186;SDS011;2107;52.306;10.484;2023-02-01T05:25:24;2.00;;;2.00;;
4186;SDS011;2107;52.306;10.484;2023-02-01T05:27:51;2.60;;;2.60;;
4186;SDS011;2107;52.306;10.484;2023-02-01T05:30:19;2.77;;;2.77;;
4186;SDS011;2107;52.306;10.484;2023-02-01T05:32:48;3.00;;;3.00;;
4186;SDS011;2107;52.306;10.484;2023-02-01T05:35:16;2.63;;;2.63;;
4186;SDS011;2107;52.306;10.484;2023-02-01T05:37:42;3.90;;;3.90;;
4186;SDS011;2107;52.306;10.484;2023-02-01T05:40:10;5.10;;;5.10;;
4186;SDS011;2107;52.306;10.484;2023-02-01T05:42:37;5.00;;;5.00;;
4186;SDS011;2107;52.306;10.484;2023-02-01T05:45:07;4.10;;;4.10;;
4186;SDS011;2107;52.306;10.484;2023-02-01T05:47:36;3.90;;;3.90;;
4186;SDS011;2107;52.306;10.484;2023-02-01T05:50:05;4.23;;;4.23;;
4186;SDS011;2107;52.306;10.484;2023-02-01T05:52:33;3.70;;;3.70;;
4186;SDS011;2107;52.306;10.484;2023-02-01T05:55:00;3.40;;;3.40;;
4186;SDS011;2107;52.306;10.484;2023-02-01T05:57:27;3.80;;;3.80;;
4186;SDS011;2107;52.306;10.484;2023-02-01T05:59:55;3.90;;;3.90;;
4186;SDS011;2107;52.306;10.484;2023-02-01T06:02:22;3.70;;;3.70;;
4186;SDS011;2107;52.306;10.484;2023-02-01T06:04:49;3.70;;;3.70;;
4186;SDS011;2107;52.306;10.484;2023-02-01T06:07:17;3.60;;;3.60;;
4186;SDS011;2107;52.306;10.484;2023-02-01T06:09:44;3.20;;;3.20;;
4186;SDS011;2107;52.306;10.484;2023-02-01T06:12:13;3.10;;;3.10;;
4186;SDS011;2107;52.306;10.484;2023-02-01T06:14:40;2.43;;;2.43;;
4186;SDS011;2107;52.306;10.484;2023-02-01T06:17:08;2.47;;;2.47;;
4186;SDS011;2107;52.306;10.484;2023-02-01T06:19:35;2.23;;;2.23;;
4186;SDS011;2107;52.306;10.484;2023-02-01T06:22:02;2.50;;;2.50;;
4186;SDS011;2107;52.306;10.484;2023-02-01T06:24:32;2.60;;;2.60;;
4186;SDS011;2107;52.306;10.484;2023-02-01T06:26:59;2.50;;;2.50;;
4186;SDS011;2107;52.306;10.484;2023-02-01T06:29:26;2.40;;;2.40;;
4186;SDS011;2107;52.306;10.484;2023-02-01T06:31:53;2.87;;;2.87;;
4186;SDS011;2107;52.306;10.484;2023-02-01T06:34:19;2.60;;;2.60;;
4186;SDS011;2107;52.306;10.484;2023-02-01T06:36:48;2.77;;;2.77;;
4186;SDS011;2107;52.306;10.484;2023-02-01T06:39:14;3.00;;;3.00;;
4186;SDS011;2107;52.306;10.484;2023-02-01T06:41:45;2.90;;;2.90;;
4186;SDS011;2107;52.306;10.484;2023-02-01T06:44:12;3.57;;;3.57;;
4186;SDS011;2107;52.306;10.484;2023-02-01T06:46:39;4.17;;;4.17;;
4186;SDS011;2107;52.306;10.484;2023-02-01T06:49:06;4.10;;;4.10;;
4186;SDS011;2107;52.306;10.484;2023-02-01T06:51:33;3.10;;;3.10;;
4186;SDS011;2107;52.306;10.484;2023-02-01T06:54:00;3.10;;;3.10;;
4186;SDS011;2107;52.306;10.484;2023-02-01T06:56:27;2.90;;;2.90;;
4186;SDS011;2107;52.306;10.484;2023-02-01T06:58:57;2.50;;;2.50;;
4186;SDS011;2107;52.306;10.484;2023-02-01T07:01:25;2.00;;;2.00;;
4186;SDS011;2107;52.306;10.484;2023-02-01T07:03:52;2.00;;;2.00;;
4186;SDS011;2107;52.306;10.484;2023-02-01T07:06:19;1.90;;;1.90;;
4186;SDS011;2107;52.306;10.484;2023-02-01T07:08:46;1.60;;;1.60;;
4186;SDS011;2107;52.306;10.484;2023-02-01T07:11:13;1.90;;;1.90;;
4186;SDS011;2107;52.306;10.484;2023-02-01T07:13:41;1.70;;;1.70;;
4186;SDS011;2107;52.306;10.484;2023-02-01T07:16:10;1.83;;;1.83;;
4186;SDS011;2107;52.306;10.484;2023-02-01T07:18:38;1.60;;;1.60;;
4186;SDS011;2107;52.306;10.484;2023-02-01T07:21:05;1.60;;;1.60;;
4186;SDS011;2107;52.306;10.484;2023-02-01T07:23:32;1.53;;;1.53;;
4186;SDS011;2107;52.306;10.484;2023-02-01T07:26:00;1.77;;;1.77;;
4186;SDS011;2107;52.306;10.484;2023-02-01T07:28:28;1.80;;;1.80;;
4186;SDS011;2107;52.306;10.484;2023-02-01T07:31:01;1.60;;;1.60;;
4186;SDS011;2107;52.306;10.484;2023-02-01T07:33:30;1.57;;;1.57;;
4186;SDS011;2107;52.306;10.484;2023-02-01T07:35:57;1.50;;;1.50;;
4186;SDS011;2107;52.306;10.484;2023-02-01T07:38:23;1.67;;;1.67;;
4186;SDS011;2107;52.306;10.484;2023-02-01T07:40:50;1.80;;;1.80;;
4186;SDS011;2107;52.306;10.484;2023-02-01T07:43:22;2.00;;;2.00;;
4186;SDS011;2107;52.306;10.484;2023-02-01T07:45:50;1.83;;;1.83;;
4186;SDS011;2107;52.306;10.484;2023-02-01T07:48:17;1.80;;;1.80;;
4186;SDS011;2107;52.306;10.484;2023-02-01T07:50:46;1.90;;;1.90;;
4186;SDS011;2107;52.306;10.484;2023-02-01T07:53:12;1.80;;;1.80;;
4186;SDS011;2107;52.306;10.484;2023-02-01T07:55:39;2.10;;;2.10;;
4186;SDS011;2107;52.306;10.484;2023-02-01T07:58:06;2.30;;;2.30;;
4186;SDS011;2107;52.306;10.484;2023-02-01T08:00:33;2.30;;;2.30;;
4186;SDS011;2107;52.306;10.484;2023-02-01T08:03:17;2.30;;;2.30;;
4186;SDS011;2107;52.306;10.484;2023-02-01T08:05:45;2.50;;;2.50;;
4186;SDS011;2107;52.306;10.484;2023-02-01T08:08:12;3.00;;;3.00;;
4186;SDS011;2107;52.306;10.484;2023-02-01T08:10:39;2.40;;;2.40;;
4186;SDS011;2107;52.306;10.484;2023-02-01T08:13:06;2.30;;;2.30;;
4186;SDS011;2107;52.306;10.484;2023-02-01T08:15:33;2.30;;;2.30;;
4186;SDS011;2107;52.306;10.484;2023-02-01T08:18:00;0.90;;;0.90;;
4186;SDS011;2107;52.306;10.484;2023-02-01T08:20:27;0.90;;;0.90;;
4186;SDS011;2107;52.306;10.484;2023-02-01T08:22:55;0.93;;;0.93;;
4186;SDS011;2107;52.306;10.484;2023-02-01T08:25:22;1.10;;;1.10;;
4186;SDS011;2107;52.306;10.484;2023-02-01T08:27:50;1.30;;;1.30;;
4186;SDS011;2107;52.306;10.484;2023-02-01T08:30:17;1.40;;;1.40;;
4186;SDS011;2107;52.306;10.484;2023-02-01T08:32:44;1.13;;;1.13;;
4186;SDS011;2107;52.306;10.484;2023-02-01T08:35:10;1.00;;;1.00;;
4186;SDS011;2107;52.306;10.484;2023-02-01T08:37:38;1.70;;;1.70;;
4186;SDS011;2107;52.306;10.484;2023-02-01T08:40:06;1.80;;;1.80;;
4186;SDS011;2107;52.306;10.484;2023-02-01T08:42:34;1.97;;;1.97;;
4186;SDS011;2107;52.306;10.484;2023-02-01T08:45:16;2.17;;;2.17;;
4186;SDS011;2107;52.306;10.484;2023-02-01T08:47:44;3.37;;;3.37;;
4186;SDS011;2107;52.306;10.484;2023-02-01T08:50:13;2.30;;;2.30;;
4186;SDS011;2107;52.306;10.484;2023-02-01T08:52:40;1.60;;;1.60;;
4186;SDS011;2107;52.306;10.484;2023-02-01T08:55:09;1.40;;;1.40;;
4186;SDS011;2107;52.306;10.484;2023-02-01T08:57:36;1.30;;;1.30;;
4186;SDS011;2107;52.306;10.484;2023-02-01T09:00:04;1.00;;;1.00;;
4186;SDS011;2107;52.306;10.484;2023-02-01T09:02:32;1.00;;;1.00;;
4186;SDS011;2107;52.306;10.484;2023-02-01T09:04:58;0.80;;;0.80;;
4186;SDS011;2107;52.306;10.484;2023-02-01T09:07:25;0.90;;;0.90;;
4186;SDS011;2107;52.306;10.484;2023-02-01T09:09:52;0.90;;;0.90;;
4186;SDS011;2107;52.306;10.484;2023-02-01T09:12:22;1.10;;;1.10;;
4186;SDS011;2107;52.306;10.484;2023-02-01T09:14:49;1.43;;;1.43;;
4186;SDS011;2107;52.306;10.484;2023-02-01T09:17:16;1.60;;;1.60;;
4186;SDS011;2107;52.306;10.484;2023-02-01T09:19:43;1.40;;;1.40;;
4186;SDS011;2107;52.306;10.484;2023-02-01T09:22:10;1.30;;;1.30;;
4186;SDS011;2107;52.306;10.484;2023-02-01T09:24:36;1.10;;;1.10;;
4186;SDS011;2107;52.306;10.484;2023-02-01T09:27:03;1.20;;;1.20;;
4186;SDS011;2107;52.306;10.484;2023-02-01T09:29:32;1.70;;;1.70;;
4186;SDS011;2107;52.306;10.484;2023-02-01T09:31:58;1.50;;;1.50;;
4186;SDS011;2107;52.306;10.484;2023-02-01T09:34:25;1.40;;;1.40;;
4186;SDS011;2107;52.306;10.484;2023-02-01T09:36:52;1.60;;;1.60;;
4186;SDS011;2107;52.306;10.484;2023-02-01T09:39:19;1.50;;;1.50;;
4186;SDS011;2107;52.306;10.484;2023-02-01T09:41:49;1.93;;;1.93;;
4186;SDS011;2107;52.306;10.484;2023-02-01T09:44:30;2.40;;;2.40;;
4186;SDS011;2107;52.306;10.484;2023-02-01T09:47:21;3.47;;;3.47;;
4186;SDS011;2107;52.306;10.484;2023-02-01T09:49:51;3.70;;;3.70;;
4186;SDS011;2107;52.306;10.484;2023-02-01T09:52:23;4.00;;;4.00;;
4186;SDS011;2107;52.306;10.484;2023-02-01T09:54:55;3.97;;;3.97;;
4186;SDS011;2107;52.306;10.484;2023-02-01T09:57:28;3.73;;;3.73;;
4186;SDS011;2107;52.306;10.484;2023-02-01T10:00:07;4.60;;;4.60;;
4186;SDS011;2107;52.306;10.484;2023-02-01T10:02:44;4.10;;;4.10;;
4186;SDS011;2107;52.306;10.484;2023-02-01T10:05:12;4.07;;;4.07;;
4186;SDS011;2107;52.306;10.484;2023-02-01T10:07:42;4.20;;;4.20;;
4186;SDS011;2107;52.306;10.484;2023-02-01T10:10:19;4.20;;;4.20;;
4186;SDS011;2107;52.306;10.484;2023-02-01T10:12:56;3.80;;;3.80;;
4186;SDS011;2107;52.306;10.484;2023-02-01T10:15:45;3.73;;;3.73;;
4186;SDS011;2107;52.306;10.484;2023-02-01T10:21:39;3.60;;;3.60;;
4186;SDS011;2107;52.306;10.484;2023-02-01T10:24:17;3.27;;;3.27;;
4186;SDS011;2107;52.306;10.484;2023-02-01T10:26:55;3.40;;;3.40;;
4186;SDS011;2107;52.306;10.484;2023-02-01T10:29:28;3.70;;;3.70;;
4186;SDS011;2107;52.306;10.484;2023-02-01T10:32:00;3.60;;;3.60;;
4186;SDS011;2107;52.306;10.484;2023-02-01T10:34:30;3.40;;;3.40;;
4186;SDS011;2107;52.306;10.484;2023-02-01T10:37:00;3.40;;;3.40;;
4186;SDS011;2107;52.306;10.484;2023-02-01T10:39:27;2.30;;;2.30;;
4186;SDS011;2107;52.306;10.484;2023-02-01T10:41:54;2.83;;;2.83;;
4186;SDS011;2107;52.306;10.484;2023-02-01T10:44:23;2.43;;;2.43;;
4186;SDS011;2107;52.306;10.484;2023-02-01T10:46:53;2.07;;;2.07;;
4186;SDS011;2107;52.306;10.484;2023-02-01T10:49:20;2.00;;;2.00;;
4186;SDS011;2107;52.306;10.484;2023-02-01T10:51:54;1.50;;;1.50;;
4186;SDS011;2107;52.306;10.484;2023-02-01T10:54:32;1.90;;;1.90;;
4186;SDS011;2107;52.306;10.484;2023-02-01T10:57:00;1.60;;;1.60;;
4186;SDS011;2107;52.306;10.484;2023-02-01T10:59:27;1.50;;;1.50;;
4186;SDS011;2107;52.306;10.484;2023-02-01T11:01:58;1.30;;;1.30;;
4186;SDS011;2107;52.306;10.484;2023-02-01T11:04:27;1.40;;;1.40;;
4186;SDS011;2107;52.306;10.484;2023-02-01T11:07:06;1.10;;;1.10;;
4186;SDS011;2107;52.306;10.484;2023-02-01T11:09:39;1.10;;;1.10;;
4186;SDS011;2107;52.306;10.484;2023-02-01T11:12:21;0.83;;;0.83;;
4186;SDS011;2107;52.306;10.484;2023-02-01T11:15:01;0.80;;;0.80;;
4186;SDS011;2107;52.306;10.484;2023-02-01T11:17:40;0.80;;;0.80;;
4186;SDS011;2107;52.306;10.484;2023-02-01T11:20:12;0.80;;;0.80;;
4186;SDS011;2107;52.306;10.484;2023-02-01T11:22:46;0.83;;;0.83;;
4186;SDS011;2107;52.306;10.484;2023-02-01T11:25:15;1.00;;;1.00;;
4186;SDS011;2107;52.306;10.484;2023-02-01T11:27:43;1.30;;;1.30;;
4186;SDS011;2107;52.306;10.484;2023-02-01T11:30:14;1.20;;;1.20;;
4186;SDS011;2107;52.306;10.484;2023-02-01T11:32:44;1.40;;;1.40;;
4186;SDS011;2107;52.306;10.484;2023-02-01T11:35:14;1.20;;;1.20;;
4186;SDS011;2107;52.306;10.484;2023-02-01T11:37:50;1.20;;;1.20;;
4186;SDS011;2107;52.306;10.484;2023-02-01T11:40:26;1.10;;;1.10;;
4186;SDS011;2107;52.306;10.484;2023-02-01T11:42:55;1.10;;;1.10;;
4186;SDS011;2107;52.306;10.484;2023-02-01T11:45:25;0.93;;;0.93;;
4186;SDS011;2107;52.306;10.484;2023-02-01T11:47:53;0.90;;;0.90;;
4186;SDS011;2107;52.306;10.484;2023-02-01T11:50:24;0.80;;;0.80;;
4186;SDS011;2107;52.306;10.484;2023-02-01T11:53:02;0.90;;;0.90;;
4186;SDS011;2107;52.306;10.484;2023-02-01T11:58:39;1.00;;;1.00;;
4186;SDS011;2107;52.306;10.484;2023-02-01T12:01:24;0.90;;;0.90;;
4186;SDS011;2107;52.306;10.484;2023-02-01T12:04:04;0.80;;;0.80;;
4186;SDS011;2107;52.306;10.484;2023-02-01T12:06:49;1.00;;;1.00;;
4186;SDS011;2107;52.306;10.484;2023-02-01T12:12:15;1.10;;;1.10;;
4186;SDS011;2107;52.306;10.484;2023-02-01T12:14:48;1.00;;;1.00;;
4186;SDS011;2107;52.306;10.484;2023-02-01T12:17:42;0.80;;;0.80;;
4186;SDS011;2107;52.306;10.484;2023-02-01T12:20:44;0.90;;;0.90;;
4186;SDS011;2107;52.306;10.484;2023-02-01T12:23:36;1.17;;;1.17;;
4186;SDS011;2107;52.306;10.484;2023-02-01T12:26:26;1.10;;;1.10;;
4186;SDS011;2107;52.306;10.484;2023-02-01T12:29:09;1.00;;;1.00;;
4186;SDS011;2107;52.306;10.484;2023-02-01T12:31:58;0.90;;;0.90;;
4186;SDS011;2107;52.306;10.484;2023-02-01T12:34:44;0.70;;;0.70;;
4186;SDS011;2107;52.306;10.484;2023-02-01T12:37:25;0.67;;;0.67;;
4186;SDS011;2107;52.306;10.484;2023-02-01T12:40:06;0.60;;;0.60;;
4186;SDS011;2107;52.306;10.484;2023-02-01T12:42:41;0.60;;;0.60;;
4186;SDS011;2107;52.306;10.484;2023-02-01T12:45:12;0.90;;;0.90;;
4186;SDS011;2107;52.306;10.484;2023-02-01T12:47:53;0.90;;;0.90;;
4186;SDS011;2107;52.306;10.484;2023-02-01T12:50:24;1.20;;;1.20;;
4186;SDS011;2107;52.306;10.484;2023-02-01T12:52:58;1.30;;;1.30;;
4186;SDS011;2107;52.306;10.484;2023-02-01T12:55:46;1.50;;;1.50;;
4186;SDS011;2107;52.306;10.484;2023-02-01T12:58:18;2.37;;;2.37;;
4186;SDS011;2107;52.306;10.484;2023-02-01T13:00:49;2.50;;;2.50;;
4186;SDS011;2107;52.306;10.484;2023-02-01T13:03:25;3.10;;;3.10;;
4186;SDS011;2107;52.306;10.484;2023-02-01T13:06:00;2.30;;;2.30;;
4186;SDS011;2107;52.306;10.484;2023-02-01T13:08:38;2.30;;;2.30;;
4186;SDS011;2107;52.306;10.484;2023-02-01T13:11:10;3.40;;;3.40;;
4186;SDS011;2107;52.306;10.484;2023-02-01T13:13:46;3.83;;;3.83;;
4186;SDS011;2107;52.306;10.484;2023-02-01T13:16:27;3.93;;;3.93;;
4186;SDS011;2107;52.306;10.484;2023-02-01T13:18:59;4.07;;;4.07;;
4186;SDS011;2107;52.306;10.484;2023-02-01T13:21:31;4.57;;;4.57;;
4186;SDS011;2107;52.306;10.484;2023-02-01T13:24:00;4.37;;;4.37;;
4186;SDS011;2107;52.306;10.484;2023-02-01T13:26:27;3.60;;;3.60;;
4186;SDS011;2107;52.306;10.484;2023-02-01T13:28:57;2.90;;;2.90;;
4186;SDS011;2107;52.306;10.484;2023-02-01T13:34:43;2.70;;;2.70;;
4186;SDS011;2107;52.306;10.484;2023-02-01T13:37:33;2.27;;;2.27;;
4186;SDS011;2107;52.306;10.484;2023-02-01T13:40:18;2.00;;;2.00;;
4186;SDS011;2107;52.306;10.484;2023-02-01T13:43:05;2.40;;;2.40;;
4186;SDS011;2107;52.306;10.484;2023-02-01T13:45:41;1.90;;;1.90;;
4186;SDS011;2107;52.306;10.484;2023-02-01T13:48:17;1.90;;;1.90;;
4186;SDS011;2107;52.306;10.484;2023-02-01T13:50:49;1.93;;;1.93;;
4186;SDS011;2107;52.306;10.484;2023-02-01T13:53:21;1.40;;;1.40;;
4186;SDS011;2107;52.306;10.484;2023-02-01T13:55:57;0.93;;;0.93;;
4186;SDS011;2107;52.306;10.484;2023-02-01T13:58:30;0.90;;;0.90;;
4186;SDS011;2107;52.306;10.484;2023-02-01T14:07:17;0.50;;;0.50;;
4186;SDS011;2107;52.306;10.484;2023-02-01T14:09:45;0.50;;;0.50;;
4186;SDS011;2107;52.306;10.484;2023-02-01T14:15:18;0.40;;;0.40;;
4186;SDS011;2107;52.306;10.484;2023-02-01T14:17:48;0.50;;;0.50;;
4186;SDS011;2107;52.306;10.484;2023-02-01T14:23:21;0.30;;;0.30;;
4186;SDS011;2107;52.306;10.484;2023-02-01T14:26:09;0.30;;;0.30;;
4186;SDS011;2107;52.306;10.484;2023-02-01T14:28:46;0.20;;;0.20;;
4186;SDS011;2107;52.306;10.484;2023-02-01T14:31:30;0.40;;;0.40;;
4186;SDS011;2107;52.306;10.484;2023-02-01T14:34:15;0.50;;;0.50;;
4186;SDS011;2107;52.306;10.484;2023-02-01T14:36:51;0.60;;;0.60;;
4186;SDS011;2107;52.306;10.484;2023-02-01T14:39:24;0.50;;;0.50;;
4186;SDS011;2107;52.306;10.484;2023-02-01T14:41:58;0.80;;;0.80;;
4186;SDS011;2107;52.306;10.484;2023-02-01T14:44:28;0.90;;;0.90;;
4186;SDS011;2107;52.306;10.484;2023-02-01T14:47:02;0.70;;;0.70;;
4186;SDS011;2107;52.306;10.484;2023-02-01T14:53:03;0.63;;;0.63;;
4186;SDS011;2107;52.306;10.484;2023-02-01T14:55:40;0.60;;;0.60;;
4186;SDS011;2107;52.306;10.484;2023-02-01T14:58:13;0.60;;;0.60;;
4186;SDS011;2107;52.306;10.484;2023-02-01T15:00:49;0.60;;;0.60;;
4186;SDS011;2107;52.306;10.484;2023-02-01T15:03:34;0.80;;;0.80;;
4186;SDS011;2107;52.306;10.484;2023-02-01T15:06:13;0.80;;;0.80;;
4186;SDS011;2107;52.306;10.484;2023-02-01T15:08:51;0.70;;;0.70;;
4186;SDS011;2107;52.306;10.484;2023-02-01T15:11:20;0.60;;;0.60;;
4186;SDS011;2107;52.306;10.484;2023-02-01T15:13:48;0.80;;;0.80;;
4186;SDS011;2107;52.306;10.484;2023-02-01T15:16:18;0.70;;;0.70;;
4186;SDS011;2107;52.306;10.484;2023-02-01T15:18:47;1.00;;;1.00;;
4186;SDS011;2107;52.306;10.484;2023-02-01T15:21:16;0.90;;;0.90;;
4186;SDS011;2107;52.306;10.484;2023-02-01T15:23:44;0.90;;;0.90;;
4186;SDS011;2107;52.306;10.484;2023-02-01T15:26:28;1.07;;;1.07;;
4186;SDS011;2107;52.306;10.484;2023-02-01T15:28:56;1.10;;;1.10;;
4186;SDS011;2107;52.306;10.484;2023-02-01T15:31:33;1.10;;;1.10;;
4186;SDS011;2107;52.306;10.484;2023-02-01T15:34:02;1.20;;;1.20;;
4186;SDS011;2107;52.306;10.484;2023-02-01T15:36:29;0.90;;;0.90;;
4186;SDS011;2107;52.306;10.484;2023-02-01T15:39:13;0.97;;;0.97;;
4186;SDS011;2107;52.306;10.484;2023-02-01T15:41:49;0.80;;;0.80;;
4186;SDS011;2107;52.306;10.484;2023-02-01T15:44:28;0.90;;;0.90;;
4186;SDS011;2107;52.306;10.484;2023-02-01T15:47:04;0.70;;;0.70;;
4186;SDS011;2107;52.306;10.484;2023-02-01T15:49:36;0.80;;;0.80;;
4186;SDS011;2107;52.306;10.484;2023-02-01T15:52:10;0.70;;;0.70;;
4186;SDS011;2107;52.306;10.484;2023-02-01T15:54:47;0.80;;;0.80;;
4186;SDS011;2107;52.306;10.484;2023-02-01T15:57:20;0.70;;;0.70;;